createdAt,value
2018-04-27T00:00:19.004Z,1010.76
2018-04-27T00:01:18.987Z,1010.74
2018-04-27T00:02:18.976Z,1010.73
2018-04-27T00:03:18.953Z,1010.69
2018-04-27T00:04:18.936Z,1010.72
2018-04-27T00:05:18.912Z,1010.68
2018-04-27T00:06:18.892Z,1010.73
2018-04-27T00:07:18.887Z,1010.70
2018-04-27T00:08:18.858Z,1010.66
2018-04-27T00:09:18.840Z,1010.65
2018-04-27T00:10:18.817Z,1010.67
2018-04-27T00:11:18.810Z,1010.63
2018-04-27T00:12:18.781Z,1010.63
2018-04-27T00:13:18.765Z,1010.58
2018-04-27T00:14:18.749Z,1010.62
2018-04-27T00:15:18.726Z,1010.57
2018-04-27T00:16:18.706Z,1010.56
2018-04-27T00:17:18.694Z,1010.59
2018-04-27T00:18:18.674Z,1010.57
2018-04-27T00:19:18.706Z,1010.59
2018-04-27T00:20:18.692Z,1010.56
2018-04-27T00:21:18.661Z,1010.53
2018-04-27T00:22:18.598Z,1010.56
2018-04-27T00:23:18.600Z,1010.53
2018-04-27T00:24:18.573Z,1010.55
2018-04-27T00:25:18.542Z,1010.54
2018-04-27T00:26:18.525Z,1010.53
2018-04-27T00:27:18.524Z,1010.49
2018-04-27T00:28:18.514Z,1010.52
2018-04-27T00:29:18.494Z,1010.51
2018-04-27T00:30:18.457Z,1010.49
2018-04-27T00:31:18.453Z,1010.54
2018-04-27T00:32:18.433Z,1010.54
2018-04-27T00:33:18.446Z,1010.53
2018-04-27T00:34:18.440Z,1010.51
2018-04-27T00:35:18.365Z,1010.49
2018-04-27T00:36:18.395Z,1010.50
2018-04-27T00:37:18.360Z,1010.51
2018-04-27T00:38:18.341Z,1010.46
2018-04-27T00:39:18.313Z,1010.45
2018-04-27T00:40:18.261Z,1010.43
2018-04-27T00:41:18.279Z,1010.40
2018-04-27T00:42:18.269Z,1010.40
2018-04-27T00:43:18.252Z,1010.40
2018-04-27T00:44:18.184Z,1010.39
2018-04-27T00:45:18.166Z,1010.40
2018-04-27T00:46:18.143Z,1010.33
2018-04-27T00:47:18.126Z,1010.37
2018-04-27T00:48:18.108Z,1010.36
2018-04-27T00:49:18.092Z,1010.39
2018-04-27T00:50:18.079Z,1010.38
2018-04-27T00:51:18.052Z,1010.33
2018-04-27T00:52:18.036Z,1010.39
2018-04-27T00:53:18.013Z,1010.37
2018-04-27T00:54:17.992Z,1010.37
2018-04-27T00:55:17.972Z,1010.33
2018-04-27T00:56:17.967Z,1010.36
2018-04-27T00:57:17.934Z,1010.38
2018-04-27T00:58:17.916Z,1010.34
2018-04-27T00:59:17.899Z,1010.34
2018-04-27T01:00:17.878Z,1010.37
2018-04-27T01:01:17.865Z,1010.33
2018-04-27T01:02:17.847Z,1010.35
2018-04-27T01:03:17.824Z,1010.30
2018-04-27T01:04:17.809Z,1010.34
2018-04-27T01:05:17.784Z,1010.30
2018-04-27T01:06:17.770Z,1010.26
2018-04-27T01:07:17.758Z,1010.27
2018-04-27T01:08:17.728Z,1010.26
2018-04-27T01:09:17.709Z,1010.24
2018-04-27T01:10:17.689Z,1010.26
2018-04-27T01:11:17.674Z,1010.24
2018-04-27T01:12:17.658Z,1010.21
2018-04-27T01:13:17.635Z,1010.20
2018-04-27T01:14:17.614Z,1010.20
2018-04-27T01:15:17.596Z,1010.19
2018-04-27T01:16:17.578Z,1010.17
2018-04-27T01:17:17.559Z,1010.16
2018-04-27T01:18:17.538Z,1010.15
2018-04-27T01:19:17.527Z,1010.12
2018-04-27T01:20:17.504Z,1010.11
2018-04-27T01:21:17.485Z,1010.14
2018-04-27T01:22:17.463Z,1010.10
2018-04-27T01:23:17.486Z,1010.14
2018-04-27T01:24:17.431Z,1010.09
2018-04-27T01:25:17.406Z,1010.11
2018-04-27T01:26:17.389Z,1010.07
2018-04-27T01:27:17.369Z,1010.08
2018-04-27T01:28:17.351Z,1010.06
2018-04-27T01:29:17.333Z,1010.04
2018-04-27T01:30:17.321Z,1010.05
2018-04-27T01:31:17.294Z,1010.02
2018-04-27T01:32:17.275Z,1010.04
2018-04-27T01:33:17.275Z,1010.02
2018-04-27T01:34:17.231Z,1010.03
2018-04-27T01:35:17.223Z,1010.03
2018-04-27T01:36:17.197Z,1010.02
2018-04-27T01:37:17.178Z,1010.03
2018-04-27T01:38:17.160Z,1010.06
2018-04-27T01:39:17.142Z,1010.02
2018-04-27T01:40:17.121Z,1009.96
2018-04-27T01:41:17.101Z,1009.95
2018-04-27T01:42:17.081Z,1009.94
2018-04-27T01:43:17.066Z,1009.96
2018-04-27T01:44:17.045Z,1009.97
2018-04-27T01:45:17.025Z,1009.93
2018-04-27T01:46:17.014Z,1009.93
2018-04-27T01:47:16.987Z,1009.92
2018-04-27T01:48:16.968Z,1009.94
2018-04-27T01:49:16.948Z,1009.89
2018-04-27T01:50:16.930Z,1009.86
2018-04-27T01:51:16.924Z,1009.84
2018-04-27T01:52:16.892Z,1009.88
2018-04-27T01:53:16.877Z,1009.87
2018-04-27T01:54:16.861Z,1009.88
2018-04-27T01:55:16.837Z,1009.89
2018-04-27T01:56:16.818Z,1009.88
2018-04-27T01:57:16.796Z,1009.89
2018-04-27T01:58:16.777Z,1009.91
2018-04-27T01:59:16.760Z,1009.94
2018-04-27T02:00:16.741Z,1009.94
2018-04-27T02:01:16.724Z,1009.94
2018-04-27T02:02:16.704Z,1009.92
2018-04-27T02:03:16.686Z,1009.92
2018-04-27T02:04:16.661Z,1009.94
2018-04-27T02:05:16.645Z,1009.92
2018-04-27T02:06:16.626Z,1009.94
2018-04-27T02:07:16.609Z,1009.90
2018-04-27T02:08:16.587Z,1009.89
2018-04-27T02:09:16.570Z,1009.90
2018-04-27T02:10:16.549Z,1009.87
2018-04-27T02:11:16.536Z,1009.85
2018-04-27T02:12:16.516Z,1009.85
2018-04-27T02:13:16.497Z,1009.83
2018-04-27T02:14:16.473Z,1009.83
2018-04-27T02:15:16.457Z,1009.82
2018-04-27T02:16:16.432Z,1009.83
2018-04-27T02:17:16.422Z,1009.82
2018-04-27T02:18:16.398Z,1009.84
2018-04-27T02:19:16.378Z,1009.83
2018-04-27T02:20:16.359Z,1009.78
2018-04-27T02:21:16.339Z,1009.80
2018-04-27T02:22:16.321Z,1009.81
2018-04-27T02:23:16.301Z,1009.80
2018-04-27T02:24:16.284Z,1009.81
2018-04-27T02:25:16.270Z,1009.79
2018-04-27T02:26:16.244Z,1009.77
2018-04-27T02:27:16.228Z,1009.75
2018-04-27T02:28:16.205Z,1009.72
2018-04-27T02:29:16.187Z,1009.69
2018-04-27T02:30:16.170Z,1009.68
2018-04-27T02:31:16.149Z,1009.68
2018-04-27T02:32:16.130Z,1009.65
2018-04-27T02:33:16.109Z,1009.67
2018-04-27T02:34:16.091Z,1009.64
2018-04-27T02:35:16.070Z,1009.62
2018-04-27T02:36:16.052Z,1009.64
2018-04-27T02:37:16.032Z,1009.64
2018-04-27T02:38:16.013Z,1009.63
2018-04-27T02:39:16.009Z,1009.61
2018-04-27T02:40:15.975Z,1009.64
2018-04-27T02:41:15.959Z,1009.62
2018-04-27T02:42:15.941Z,1009.60
2018-04-27T02:43:15.921Z,1009.57
2018-04-27T02:44:15.899Z,1009.58
2018-04-27T02:45:15.879Z,1009.59
2018-04-27T02:46:15.863Z,1009.56
2018-04-27T02:47:15.841Z,1009.56
2018-04-27T02:48:15.824Z,1009.58
2018-04-27T02:49:15.801Z,1009.53
2018-04-27T02:50:15.781Z,1009.57
2018-04-27T02:51:15.767Z,1009.58
2018-04-27T02:52:15.744Z,1009.59
2018-04-27T02:53:15.728Z,1009.56
2018-04-27T02:54:15.707Z,1009.59
2018-04-27T02:55:15.691Z,1009.64
2018-04-27T02:56:15.669Z,1009.61
2018-04-27T02:57:15.648Z,1009.62
2018-04-27T02:58:15.634Z,1009.59
2018-04-27T02:59:15.610Z,1009.55
2018-04-27T03:00:15.595Z,1009.56
2018-04-27T03:01:15.572Z,1009.57
2018-04-27T03:02:15.556Z,1009.58
2018-04-27T03:03:15.533Z,1009.51
2018-04-27T03:04:15.516Z,1009.52
2018-04-27T03:05:15.493Z,1009.54
2018-04-27T03:06:15.489Z,1009.55
2018-04-27T03:07:15.459Z,1009.52
2018-04-27T03:08:15.438Z,1009.53
2018-04-27T03:09:15.420Z,1009.55
2018-04-27T03:10:15.407Z,1009.55
2018-04-27T03:11:15.383Z,1009.55
2018-04-27T03:12:15.366Z,1009.56
2018-04-27T03:13:15.372Z,1009.48
2018-04-27T03:14:15.329Z,1009.48
2018-04-27T03:15:15.315Z,1009.48
2018-04-27T03:16:15.290Z,1009.47
2018-04-27T03:17:15.312Z,1009.47
2018-04-27T03:18:15.247Z,1009.48
2018-04-27T03:19:15.231Z,1009.50
2018-04-27T03:20:15.212Z,1009.50
2018-04-27T03:21:15.190Z,1009.47
2018-04-27T03:22:15.174Z,1009.46
2018-04-27T03:23:15.161Z,1009.42
2018-04-27T03:24:15.144Z,1009.41
2018-04-27T03:25:15.109Z,1009.42
2018-04-27T03:26:15.098Z,1009.40
2018-04-27T03:27:15.076Z,1009.36
2018-04-27T03:28:15.055Z,1009.39
2018-04-27T03:29:15.035Z,1009.37
2018-04-27T03:30:15.019Z,1009.37
2018-04-27T03:31:14.995Z,1009.32
2018-04-27T03:32:14.979Z,1009.36
2018-04-27T03:33:14.963Z,1009.35
2018-04-27T03:34:14.980Z,1009.36
2018-04-27T03:35:14.923Z,1009.35
2018-04-27T03:36:14.900Z,1009.37
2018-04-27T03:37:14.890Z,1009.39
2018-04-27T03:38:14.860Z,1009.36
2018-04-27T03:39:14.844Z,1009.37
2018-04-27T03:40:14.827Z,1009.36
2018-04-27T03:41:14.806Z,1009.34
2018-04-27T03:42:14.789Z,1009.38
2018-04-27T03:43:14.774Z,1009.36
2018-04-27T03:44:14.749Z,1009.31
2018-04-27T03:45:14.728Z,1009.34
2018-04-27T03:46:14.708Z,1009.33
2018-04-27T03:47:14.693Z,1009.29
2018-04-27T03:48:14.671Z,1009.32
2018-04-27T03:49:14.652Z,1009.30
2018-04-27T03:50:14.632Z,1009.30
2018-04-27T03:51:14.617Z,1009.31
2018-04-27T03:52:14.598Z,1009.32
2018-04-27T03:53:14.582Z,1009.28
2018-04-27T03:54:14.552Z,1009.29
2018-04-27T03:55:14.536Z,1009.30
2018-04-27T03:56:14.515Z,1009.29
2018-04-27T03:57:14.497Z,1009.29
2018-04-27T03:58:14.477Z,1009.26
2018-04-27T03:59:14.465Z,1009.25
2018-04-27T04:00:14.451Z,1009.24
2018-04-27T04:01:14.488Z,1009.26
2018-04-27T04:02:14.402Z,1009.25
2018-04-27T04:03:14.382Z,1009.25
2018-04-27T04:04:14.385Z,1009.24
2018-04-27T04:05:14.347Z,1009.24
2018-04-27T04:06:14.326Z,1009.22
2018-04-27T04:07:14.311Z,1009.23
2018-04-27T04:08:14.283Z,1009.22
2018-04-27T04:09:14.267Z,1009.18
2018-04-27T04:10:14.250Z,1009.20
2018-04-27T04:11:14.227Z,1009.18
2018-04-27T04:12:14.222Z,1009.17
2018-04-27T04:13:14.187Z,1009.18
2018-04-27T04:14:14.172Z,1009.15
2018-04-27T04:15:14.158Z,1009.13
2018-04-27T04:16:14.131Z,1009.14
2018-04-27T04:17:14.116Z,1009.16
2018-04-27T04:18:14.094Z,1009.16
2018-04-27T04:19:14.073Z,1009.17
2018-04-27T04:20:14.057Z,1009.14
2018-04-27T04:21:14.042Z,1009.14
2018-04-27T04:22:14.016Z,1009.15
2018-04-27T04:23:13.998Z,1009.13
2018-04-27T04:24:13.977Z,1009.17
2018-04-27T04:25:13.967Z,1009.10
2018-04-27T04:26:13.943Z,1009.14
2018-04-27T04:27:13.923Z,1009.12
2018-04-27T04:28:13.902Z,1009.13
2018-04-27T04:29:13.881Z,1009.13
2018-04-27T04:30:13.860Z,1009.09
2018-04-27T04:31:13.841Z,1009.10
2018-04-27T04:32:13.825Z,1009.11
2018-04-27T04:33:13.808Z,1009.13
2018-04-27T04:34:13.786Z,1009.11
2018-04-27T04:35:13.768Z,1009.11
2018-04-27T04:36:13.753Z,1009.14
2018-04-27T04:37:13.728Z,1009.13
2018-04-27T04:38:13.793Z,1009.11
2018-04-27T04:39:13.688Z,1009.16
2018-04-27T04:40:13.667Z,1009.15
2018-04-27T04:41:13.646Z,1009.19
2018-04-27T04:42:13.636Z,1009.18
2018-04-27T04:43:13.615Z,1009.18
2018-04-27T04:44:13.601Z,1009.21
2018-04-27T04:45:13.572Z,1009.23
2018-04-27T04:46:13.560Z,1009.20
2018-04-27T04:47:13.532Z,1009.21
2018-04-27T04:48:13.706Z,1009.24
2018-04-27T04:49:13.550Z,1009.21
2018-04-27T04:50:13.479Z,1009.19
2018-04-27T04:51:13.476Z,1009.18
2018-04-27T04:52:13.460Z,1009.21
2018-04-27T04:53:13.421Z,1009.19
2018-04-27T04:54:13.398Z,1009.18
2018-04-27T04:55:13.378Z,1009.22
2018-04-27T04:56:13.359Z,1009.21
2018-04-27T04:57:13.338Z,1009.19
2018-04-27T04:58:13.317Z,1009.16
2018-04-27T04:59:13.302Z,1009.20
2018-04-27T05:00:13.279Z,1009.23
2018-04-27T05:01:13.263Z,1009.21
2018-04-27T05:02:13.245Z,1009.22
2018-04-27T05:03:13.227Z,1009.22
2018-04-27T05:04:13.204Z,1009.21
2018-04-27T05:05:13.184Z,1009.22
2018-04-27T05:06:13.168Z,1009.20
2018-04-27T05:07:13.147Z,1009.24
2018-04-27T05:08:13.160Z,1009.23
2018-04-27T05:09:13.106Z,1009.21
2018-04-27T05:10:13.089Z,1009.23
2018-04-27T05:11:13.066Z,1009.22
2018-04-27T05:12:13.047Z,1009.20
2018-04-27T05:13:13.028Z,1009.20
2018-04-27T05:14:13.014Z,1009.17
2018-04-27T05:15:12.994Z,1009.19
2018-04-27T05:16:12.971Z,1009.15
2018-04-27T05:17:12.955Z,1009.12
2018-04-27T05:18:12.930Z,1009.12
2018-04-27T05:19:12.917Z,1009.17
2018-04-27T05:20:12.895Z,1009.10
2018-04-27T05:21:12.875Z,1009.10
2018-04-27T05:22:12.856Z,1009.10
2018-04-27T05:23:12.834Z,1009.10
2018-04-27T05:24:12.863Z,1009.07
2018-04-27T05:25:12.806Z,1009.06
2018-04-27T05:26:12.776Z,1009.04
2018-04-27T05:27:12.758Z,1009.01
2018-04-27T05:28:12.740Z,1009.00
2018-04-27T05:29:12.721Z,1008.96
2018-04-27T05:30:12.702Z,1008.97
2018-04-27T05:31:12.697Z,1008.98
2018-04-27T05:32:12.668Z,1008.91
2018-04-27T05:33:12.651Z,1008.92
2018-04-27T05:34:12.623Z,1008.93
2018-04-27T05:35:12.605Z,1008.95
2018-04-27T05:36:12.598Z,1008.94
2018-04-27T05:37:12.568Z,1008.96
2018-04-27T05:38:12.550Z,1008.96
2018-04-27T05:39:12.524Z,1008.93
2018-04-27T05:40:12.507Z,1008.93
2018-04-27T05:41:12.490Z,1008.95
2018-04-27T05:42:12.472Z,1008.95
2018-04-27T05:43:12.450Z,1008.90
2018-04-27T05:44:12.432Z,1008.93
2018-04-27T05:45:12.416Z,1008.94
2018-04-27T05:46:12.399Z,1008.94
2018-04-27T05:47:12.376Z,1008.96
2018-04-27T05:48:12.359Z,1008.92
2018-04-27T05:49:12.338Z,1008.92
2018-04-27T05:50:12.313Z,1008.93
2018-04-27T05:51:12.307Z,1008.90
2018-04-27T05:52:12.278Z,1008.83
2018-04-27T05:53:12.256Z,1008.83
2018-04-27T05:54:12.243Z,1008.85
2018-04-27T05:55:12.219Z,1008.85
2018-04-27T05:56:12.212Z,1008.87
2018-04-27T05:57:12.187Z,1008.86
2018-04-27T05:58:12.161Z,1008.85
2018-04-27T05:59:12.148Z,1008.85
2018-04-27T06:00:12.127Z,1008.91
2018-04-27T06:01:12.105Z,1008.88
2018-04-27T06:02:12.086Z,1008.88
2018-04-27T06:03:12.067Z,1008.85
2018-04-27T06:04:12.056Z,1008.84
2018-04-27T06:05:12.031Z,1008.81
2018-04-27T06:06:12.010Z,1008.83
2018-04-27T06:07:11.994Z,1008.84
2018-04-27T06:08:11.983Z,1008.84
2018-04-27T06:09:11.951Z,1008.85
2018-04-27T06:10:11.957Z,1008.83
2018-04-27T06:11:11.920Z,1008.85
2018-04-27T06:12:11.895Z,1008.83
2018-04-27T06:13:11.883Z,1008.85
2018-04-27T06:14:11.856Z,1008.85
2018-04-27T06:15:11.844Z,1008.84
2018-04-27T06:16:11.872Z,1008.84
2018-04-27T06:17:11.805Z,1008.85
2018-04-27T06:18:11.780Z,1008.86
2018-04-27T06:19:11.762Z,1008.84
2018-04-27T06:20:11.746Z,1008.84
2018-04-27T06:21:11.727Z,1008.80
2018-04-27T06:22:11.711Z,1008.84
2018-04-27T06:23:11.691Z,1008.80
2018-04-27T06:24:11.678Z,1008.82
2018-04-27T06:25:11.650Z,1008.80
2018-04-27T06:26:11.636Z,1008.77
2018-04-27T06:27:11.612Z,1008.74
2018-04-27T06:28:11.600Z,1008.70
2018-04-27T06:29:11.581Z,1008.68
2018-04-27T06:30:11.557Z,1008.66
2018-04-27T06:31:11.535Z,1008.60
2018-04-27T06:32:11.521Z,1008.60
2018-04-27T06:33:11.502Z,1008.60
2018-04-27T06:34:11.486Z,1008.61
2018-04-27T06:35:11.460Z,1008.59
2018-04-27T06:36:11.455Z,1008.62
2018-04-27T06:37:11.422Z,1008.64
2018-04-27T06:38:11.406Z,1008.59
2018-04-27T06:39:11.386Z,1008.65
2018-04-27T06:40:11.370Z,1008.63
2018-04-27T06:41:11.348Z,1008.61
2018-04-27T06:42:11.334Z,1008.63
2018-04-27T06:43:11.311Z,1008.58
2018-04-27T06:44:11.295Z,1008.62
2018-04-27T06:45:11.271Z,1008.64
2018-04-27T06:46:11.272Z,1008.60
2018-04-27T06:47:11.248Z,1008.64
2018-04-27T06:48:11.224Z,1008.58
2018-04-27T06:49:11.197Z,1008.57
2018-04-27T06:50:11.182Z,1008.58
2018-04-27T06:51:11.159Z,1008.53
2018-04-27T06:52:11.148Z,1008.59
2018-04-27T06:53:11.133Z,1008.58
2018-04-27T06:54:11.105Z,1008.52
2018-04-27T06:55:11.087Z,1008.52
2018-04-27T06:56:11.065Z,1008.53
2018-04-27T06:57:11.051Z,1008.54
2018-04-27T06:58:11.027Z,1008.52
2018-04-27T06:59:11.085Z,1008.50
2018-04-27T07:00:10.995Z,1008.52
2018-04-27T07:01:10.973Z,1008.52
2018-04-27T07:02:10.955Z,1008.54
2018-04-27T07:03:10.935Z,1008.61
2018-04-27T07:04:10.915Z,1008.56
2018-04-27T07:05:10.969Z,1008.55
2018-04-27T07:06:10.888Z,1008.55
2018-04-27T07:07:10.861Z,1008.54
2018-04-27T07:08:10.845Z,1008.54
2018-04-27T07:09:10.902Z,1008.48
2018-04-27T07:10:10.808Z,1008.49
2018-04-27T07:11:10.796Z,1008.50
2018-04-27T07:12:10.766Z,1008.49
2018-04-27T07:13:10.761Z,1008.50
2018-04-27T07:14:10.727Z,1008.51
2018-04-27T07:15:10.711Z,1008.52
2018-04-27T07:16:10.692Z,1008.54
2018-04-27T07:17:10.688Z,1008.49
2018-04-27T07:18:10.652Z,1008.50
2018-04-27T07:19:10.641Z,1008.50
2018-04-27T07:20:10.617Z,1008.50
2018-04-27T07:21:10.599Z,1008.51
2018-04-27T07:22:10.587Z,1008.48
2018-04-27T07:23:10.571Z,1008.54
2018-04-27T07:24:10.546Z,1008.53
2018-04-27T07:25:10.527Z,1008.51
2018-04-27T07:26:10.505Z,1008.51
2018-04-27T07:27:10.492Z,1008.45
2018-04-27T07:28:10.474Z,1008.46
2018-04-27T07:29:10.460Z,1008.46
2018-04-27T07:30:10.431Z,1008.44
2018-04-27T07:31:10.413Z,1008.46
2018-04-27T07:32:10.399Z,1008.46
2018-04-27T07:33:10.381Z,1008.45
2018-04-27T07:34:10.387Z,1008.44
2018-04-27T07:35:10.340Z,1008.46
2018-04-27T07:36:10.325Z,1008.45
2018-04-27T07:37:10.301Z,1008.43
2018-04-27T07:38:10.285Z,1008.44
2018-04-27T07:39:10.268Z,1008.45
2018-04-27T07:40:10.297Z,1008.46
2018-04-27T07:41:10.233Z,1008.52
2018-04-27T07:42:10.218Z,1008.51
2018-04-27T07:43:10.194Z,1008.49
2018-04-27T07:44:10.171Z,1008.54
2018-04-27T07:45:10.159Z,1008.49
2018-04-27T07:46:10.137Z,1008.49
2018-04-27T07:47:10.118Z,1008.45
2018-04-27T07:48:10.098Z,1008.46
2018-04-27T07:49:10.086Z,1008.49
2018-04-27T07:50:10.066Z,1008.46
2018-04-27T07:51:10.047Z,1008.45
2018-04-27T07:52:10.026Z,1008.47
2018-04-27T07:53:10.007Z,1008.48
2018-04-27T07:54:09.992Z,1008.44
2018-04-27T07:55:09.977Z,1008.40
2018-04-27T07:56:09.953Z,1008.45
2018-04-27T07:57:09.937Z,1008.43
2018-04-27T07:58:09.921Z,1008.44
2018-04-27T07:59:09.908Z,1008.47
2018-04-27T08:00:09.887Z,1008.50
2018-04-27T08:01:09.866Z,1008.48
2018-04-27T08:02:09.885Z,1008.46
2018-04-27T08:03:09.835Z,1008.45
2018-04-27T08:04:09.812Z,1008.46
2018-04-27T08:05:09.796Z,1008.44
2018-04-27T08:06:09.784Z,1008.37
2018-04-27T08:07:09.782Z,1008.39
2018-04-27T08:08:09.739Z,1008.37
2018-04-27T08:09:09.721Z,1008.40
2018-04-27T08:10:09.708Z,1008.38
2018-04-27T08:11:09.685Z,1008.37
2018-04-27T08:12:09.680Z,1008.37
2018-04-27T08:13:09.646Z,1008.33
2018-04-27T08:14:09.636Z,1008.30
2018-04-27T08:15:09.613Z,1008.29
2018-04-27T08:16:09.596Z,1008.24
2018-04-27T08:17:09.576Z,1008.24
2018-04-27T08:18:09.559Z,1008.27
2018-04-27T08:19:09.541Z,1008.24
2018-04-27T08:20:09.525Z,1008.23
2018-04-27T08:21:09.512Z,1008.25
2018-04-27T08:22:09.486Z,1008.24
2018-04-27T08:23:09.475Z,1008.24
2018-04-27T08:24:09.460Z,1008.22
2018-04-27T08:25:09.451Z,1008.24
2018-04-27T08:26:09.416Z,1008.22
2018-04-27T08:27:09.399Z,1008.20
2018-04-27T08:28:09.384Z,1008.21
2018-04-27T08:29:09.372Z,1008.19
2018-04-27T08:30:09.367Z,1008.19
2018-04-27T08:31:09.328Z,1008.19
2018-04-27T08:32:09.312Z,1008.18
2018-04-27T08:33:09.296Z,1008.16
2018-04-27T08:34:09.284Z,1008.20
2018-04-27T08:35:09.256Z,1008.16
2018-04-27T08:36:09.260Z,1008.15
2018-04-27T08:37:09.221Z,1008.14
2018-04-27T08:38:09.201Z,1008.08
2018-04-27T08:39:09.187Z,1008.14
2018-04-27T08:40:09.170Z,1008.08
2018-04-27T08:41:09.151Z,1008.05
2018-04-27T08:42:09.138Z,1008.10
2018-04-27T08:43:09.116Z,1008.05
2018-04-27T08:44:09.104Z,1008.03
2018-04-27T08:45:09.085Z,1008.05
2018-04-27T08:46:09.068Z,1008.07
2018-04-27T08:47:09.047Z,1008.10
2018-04-27T08:48:09.031Z,1008.11
2018-04-27T08:49:09.014Z,1008.08
2018-04-27T08:50:08.997Z,1008.10
2018-04-27T08:51:08.978Z,1008.10
2018-04-27T08:52:08.959Z,1008.10
2018-04-27T08:53:08.947Z,1008.07
2018-04-27T08:54:08.929Z,1008.08
2018-04-27T08:55:08.907Z,1008.08
2018-04-27T08:56:08.893Z,1008.09
2018-04-27T08:57:08.876Z,1008.10
2018-04-27T08:58:08.860Z,1008.12
2018-04-27T08:59:08.840Z,1008.13
2018-04-27T09:00:08.819Z,1008.15
2018-04-27T09:01:08.807Z,1008.19
2018-04-27T09:02:08.789Z,1008.16
2018-04-27T09:03:08.766Z,1008.17
2018-04-27T09:04:08.753Z,1008.13
2018-04-27T09:05:08.734Z,1008.14
2018-04-27T09:06:08.715Z,1008.14
2018-04-27T09:07:08.699Z,1008.09
2018-04-27T09:08:08.681Z,1008.04
2018-04-27T09:09:08.663Z,1008.09
2018-04-27T09:10:08.647Z,1008.08
2018-04-27T09:11:08.629Z,1008.07
2018-04-27T09:12:08.611Z,1008.05
2018-04-27T09:13:08.603Z,1008.00
2018-04-27T09:14:08.575Z,1008.01
2018-04-27T09:15:08.558Z,1008.04
2018-04-27T09:16:08.554Z,1008.01
2018-04-27T09:17:08.526Z,1008.04
2018-04-27T09:18:08.510Z,1008.04
2018-04-27T09:19:08.489Z,1008.06
2018-04-27T09:20:08.474Z,1008.06
2018-04-27T09:21:08.456Z,1008.05
2018-04-27T09:22:08.440Z,1007.97
2018-04-27T09:23:08.430Z,1007.97
2018-04-27T09:24:08.409Z,1007.98
2018-04-27T09:25:08.393Z,1007.97
2018-04-27T09:26:08.369Z,1008.00
2018-04-27T09:27:08.354Z,1007.99
2018-04-27T09:28:08.343Z,1007.95
2018-04-27T09:29:08.320Z,1007.97
2018-04-27T09:30:08.304Z,1007.95
2018-04-27T09:31:08.287Z,1007.93
2018-04-27T09:32:08.274Z,1007.97
2018-04-27T09:33:08.275Z,1008.00
2018-04-27T09:34:08.234Z,1008.02
2018-04-27T09:35:08.218Z,1008.01
2018-04-27T09:36:08.199Z,1007.98
2018-04-27T09:37:08.180Z,1007.95
2018-04-27T09:38:08.162Z,1007.91
2018-04-27T09:39:08.154Z,1007.89
2018-04-27T09:40:08.130Z,1007.94
2018-04-27T09:41:08.131Z,1007.92
2018-04-27T09:42:08.100Z,1007.91
2018-04-27T09:43:08.077Z,1007.87
2018-04-27T09:44:08.061Z,1007.85
2018-04-27T09:45:08.045Z,1007.83
2018-04-27T09:46:08.026Z,1007.81
2018-04-27T09:47:08.010Z,1007.77
2018-04-27T09:48:08.000Z,1007.78
2018-04-27T09:49:07.976Z,1007.76
2018-04-27T09:50:07.957Z,1007.75
2018-04-27T09:51:07.940Z,1007.74
2018-04-27T09:52:07.927Z,1007.72
2018-04-27T09:53:07.912Z,1007.71
2018-04-27T09:54:07.889Z,1007.75
2018-04-27T09:55:07.883Z,1007.72
2018-04-27T09:56:07.868Z,1007.74
2018-04-27T09:57:07.849Z,1007.66
2018-04-27T09:58:07.822Z,1007.66
2018-04-27T09:59:07.807Z,1007.59
2018-04-27T10:00:07.789Z,1007.58
2018-04-27T10:01:07.776Z,1007.57
2018-04-27T10:02:07.756Z,1007.56
2018-04-27T10:03:07.739Z,1007.51
2018-04-27T10:04:07.728Z,1007.53
2018-04-27T10:05:07.703Z,1007.51
2018-04-27T10:06:07.684Z,1007.49
2018-04-27T10:07:07.670Z,1007.46
2018-04-27T10:08:07.659Z,1007.48
2018-04-27T10:09:07.635Z,1007.46
2018-04-27T10:10:07.619Z,1007.45
2018-04-27T10:11:07.600Z,1007.47
2018-04-27T10:12:07.585Z,1007.47
2018-04-27T10:13:07.570Z,1007.41
2018-04-27T10:14:07.549Z,1007.42
2018-04-27T10:15:07.619Z,1007.39
2018-04-27T10:16:07.518Z,1007.41
2018-04-27T10:17:07.519Z,1007.42
2018-04-27T10:18:07.482Z,1007.48
2018-04-27T10:19:07.467Z,1007.48
2018-04-27T10:20:07.458Z,1007.46
2018-04-27T10:21:07.434Z,1007.42
2018-04-27T10:22:07.419Z,1007.39
2018-04-27T10:23:07.399Z,1007.38
2018-04-27T10:24:07.389Z,1007.39
2018-04-27T10:25:07.371Z,1007.39
2018-04-27T10:26:07.353Z,1007.39
2018-04-27T10:27:07.343Z,1007.41
2018-04-27T10:28:07.319Z,1007.40
2018-04-27T10:29:07.300Z,1007.43
2018-04-27T10:30:07.283Z,1007.39
2018-04-27T10:31:07.273Z,1007.35
2018-04-27T10:32:07.255Z,1007.33
2018-04-27T10:33:07.238Z,1007.27
2018-04-27T10:34:07.216Z,1007.32
2018-04-27T10:35:07.199Z,1007.31
2018-04-27T10:36:07.187Z,1007.34
2018-04-27T10:37:07.172Z,1007.28
2018-04-27T10:38:07.148Z,1007.27
2018-04-27T10:39:07.144Z,1007.25
2018-04-27T10:40:07.121Z,1007.18
2018-04-27T10:41:07.099Z,1007.14
2018-04-27T10:42:07.080Z,1007.12
2018-04-27T10:43:07.079Z,1007.06
2018-04-27T10:44:07.048Z,1007.05
2018-04-27T10:45:07.040Z,1007.02
2018-04-27T10:46:07.017Z,1007.03
2018-04-27T10:47:07.004Z,1007.03
2018-04-27T10:48:06.985Z,1007.04
2018-04-27T10:49:06.967Z,1007.02
2018-04-27T10:50:06.951Z,1007.03
2018-04-27T10:51:06.937Z,1007.03
2018-04-27T10:52:06.917Z,1006.99
2018-04-27T10:53:06.907Z,1006.98
2018-04-27T10:54:06.884Z,1006.95
2018-04-27T10:55:06.876Z,1006.94
2018-04-27T10:56:06.895Z,1006.89
2018-04-27T10:57:06.837Z,1006.88
2018-04-27T10:58:06.819Z,1006.90
2018-04-27T10:59:06.805Z,1006.90
2018-04-27T11:00:06.790Z,1006.89
2018-04-27T11:01:06.771Z,1006.85
2018-04-27T11:02:06.772Z,1006.82
2018-04-27T11:03:06.738Z,1006.73
2018-04-27T11:04:06.728Z,1006.75
2018-04-27T11:05:06.708Z,1006.75
2018-04-27T11:06:06.696Z,1006.74
2018-04-27T11:07:06.683Z,1006.72
2018-04-27T11:08:06.665Z,1006.68
2018-04-27T11:09:06.650Z,1006.65
2018-04-27T11:10:06.628Z,1006.64
2018-04-27T11:11:06.692Z,1006.60
2018-04-27T11:12:06.596Z,1006.58
2018-04-27T11:13:06.579Z,1006.53
2018-04-27T11:14:06.564Z,1006.49
2018-04-27T11:15:06.548Z,1006.44
2018-04-27T11:16:06.531Z,1006.50
2018-04-27T11:17:06.569Z,1006.50
2018-04-27T11:18:06.500Z,1006.48
2018-04-27T11:19:06.480Z,1006.52
2018-04-27T11:20:06.557Z,1006.50
2018-04-27T11:21:06.452Z,1006.45
2018-04-27T11:22:06.437Z,1006.45
2018-04-27T11:23:06.421Z,1006.47
2018-04-27T11:24:06.408Z,1006.42
2018-04-27T11:25:06.392Z,1006.35
2018-04-27T11:26:06.378Z,1006.37
2018-04-27T11:27:06.358Z,1006.40
2018-04-27T11:28:06.339Z,1006.38
2018-04-27T11:29:06.325Z,1006.38
2018-04-27T11:30:06.308Z,1006.35
2018-04-27T11:31:06.288Z,1006.30
2018-04-27T11:32:06.279Z,1006.25
2018-04-27T11:33:06.259Z,1006.22
2018-04-27T11:34:06.244Z,1006.20
2018-04-27T11:35:06.226Z,1006.19
2018-04-27T11:36:06.215Z,1006.15
2018-04-27T11:37:06.193Z,1006.21
2018-04-27T11:38:06.177Z,1006.22
2018-04-27T11:39:06.160Z,1006.21
2018-04-27T11:40:06.160Z,1006.22
2018-04-27T11:41:06.131Z,1006.22
2018-04-27T11:42:06.114Z,1006.23
2018-04-27T11:43:06.101Z,1006.21
2018-04-27T11:44:06.082Z,1006.24
2018-04-27T11:45:06.080Z,1006.22
2018-04-27T11:46:06.055Z,1006.16
2018-04-27T11:47:06.034Z,1006.33
2018-04-27T11:48:06.017Z,1006.29
2018-04-27T11:49:05.999Z,1006.28
2018-04-27T11:50:05.985Z,1006.29
2018-04-27T11:51:05.969Z,1006.24
2018-04-27T11:52:05.979Z,1006.22
2018-04-27T11:53:05.941Z,1006.19
2018-04-27T11:54:05.924Z,1006.19
2018-04-27T11:55:05.916Z,1006.13
2018-04-27T11:56:05.889Z,1006.06
2018-04-27T11:57:05.879Z,1006.05
2018-04-27T11:58:05.861Z,1006.05
2018-04-27T11:59:05.845Z,1006.02
2018-04-27T12:00:05.828Z,1006.05
2018-04-27T12:01:05.810Z,1006.03
2018-04-27T12:02:05.804Z,1005.95
2018-04-27T12:03:05.783Z,1005.91
2018-04-27T12:04:05.765Z,1005.79
2018-04-27T12:05:05.749Z,1005.79